createdAt,value
2018-04-18T00:00:38.253Z,7.70
2018-04-18T00:03:05.950Z,7.60
2018-04-18T00:05:33.574Z,7.60
2018-04-18T00:08:01.250Z,7.60
2018-04-18T00:10:28.901Z,7.60
2018-04-18T00:12:57.291Z,7.50
2018-04-18T00:15:24.990Z,7.50
2018-04-18T00:17:53.307Z,7.50
2018-04-18T00:20:20.987Z,7.50
2018-04-18T00:22:48.690Z,7.40
2018-04-18T00:25:16.395Z,7.40
2018-04-18T00:27:44.084Z,7.40
2018-04-18T00:30:12.549Z,7.40
2018-04-18T00:32:41.838Z,7.40
2018-04-18T00:35:09.524Z,7.40
2018-04-18T00:37:37.217Z,7.30
2018-04-18T00:40:05.663Z,7.40
2018-04-18T00:42:33.721Z,7.40
2018-04-18T00:45:01.382Z,7.40
2018-04-18T00:47:29.033Z,7.40
2018-04-18T00:49:56.689Z,7.30
2018-04-18T00:52:24.393Z,7.20
2018-04-18T00:54:52.090Z,7.20
2018-04-18T00:57:19.972Z,7.10
2018-04-18T00:59:48.512Z,7.10
2018-04-18T01:02:16.161Z,7.10
2018-04-18T01:04:43.811Z,7.10
2018-04-18T01:07:12.231Z,7.00
2018-04-18T01:09:39.895Z,7.00
2018-04-18T01:12:07.581Z,7.00
2018-04-18T01:14:35.221Z,7.00
2018-04-18T01:17:03.923Z,7.00
2018-04-18T01:19:32.367Z,6.90
2018-04-18T01:22:00.824Z,6.90
2018-04-18T01:24:28.538Z,6.90
2018-04-18T01:26:56.237Z,6.80
2018-04-18T01:29:23.897Z,6.80
2018-04-18T01:31:51.513Z,6.80
2018-04-18T01:34:19.217Z,6.70
2018-04-18T01:36:46.904Z,6.80
2018-04-18T01:39:14.575Z,6.70
2018-04-18T01:41:42.276Z,6.70
2018-04-18T01:44:10.006Z,6.70
2018-04-18T01:46:37.634Z,6.60
2018-04-18T01:49:22.544Z,6.60
2018-04-18T01:51:50.189Z,6.60
2018-04-18T01:54:17.986Z,6.60
2018-04-18T01:56:46.199Z,6.60
2018-04-18T01:59:14.626Z,6.50
2018-04-18T02:01:42.978Z,6.50
2018-04-18T02:04:11.397Z,6.50
2018-04-18T02:06:39.057Z,6.50
2018-04-18T02:09:06.735Z,6.50
2018-04-18T02:11:34.425Z,6.50
2018-04-18T02:14:02.130Z,6.50
2018-04-18T02:16:30.539Z,6.40
2018-04-18T02:18:58.223Z,6.40
2018-04-18T02:21:27.395Z,6.30
2018-04-18T02:23:57.485Z,6.30
2018-04-18T02:26:25.960Z,6.30
2018-04-18T02:28:53.621Z,6.30
2018-04-18T02:31:21.248Z,6.30
2018-04-18T02:33:48.914Z,6.30
2018-04-18T02:36:17.527Z,6.30
2018-04-18T02:38:45.226Z,6.20
2018-04-18T02:41:12.883Z,6.20
2018-04-18T02:43:41.368Z,6.20
2018-04-18T02:46:09.781Z,6.10
2018-04-18T02:48:39.141Z,6.10
2018-04-18T02:51:06.829Z,6.10
2018-04-18T02:53:34.498Z,6.00
2018-04-18T02:56:02.170Z,5.90
2018-04-18T02:58:29.814Z,5.90
2018-04-18T03:00:57.902Z,6.00
2018-04-18T03:03:25.577Z,6.00
2018-04-18T03:05:53.227Z,6.00
2018-04-18T03:08:20.899Z,6.00
2018-04-18T03:10:48.636Z,6.00
2018-04-18T03:13:16.323Z,5.90
2018-04-18T03:15:43.963Z,5.80
2018-04-18T03:18:11.620Z,5.80
2018-04-18T03:20:39.286Z,5.80
2018-04-18T03:23:06.960Z,5.80
2018-04-18T03:25:34.650Z,5.70
2018-04-18T03:28:02.654Z,5.70
2018-04-18T03:30:30.894Z,5.80
2018-04-18T03:32:58.592Z,5.80
2018-04-18T03:35:26.227Z,5.80
2018-04-18T03:37:54.090Z,5.70
2018-04-18T03:40:21.781Z,5.70
2018-04-18T03:42:49.423Z,5.80
2018-04-18T03:45:17.056Z,5.80
2018-04-18T03:47:44.787Z,5.70
2018-04-18T03:50:12.564Z,5.60
2018-04-18T03:52:40.190Z,5.60
2018-04-18T03:55:07.838Z,5.50
2018-04-18T03:57:36.317Z,5.60
2018-04-18T04:00:03.988Z,5.60
2018-04-18T04:02:32.408Z,5.60
2018-04-18T04:05:00.117Z,5.60
2018-04-18T04:07:27.785Z,5.50
2018-04-18T04:09:55.515Z,5.50
2018-04-18T04:12:23.222Z,5.50
2018-04-18T04:14:50.942Z,5.50
2018-04-18T04:17:31.128Z,5.40
2018-04-18T04:20:10.577Z,5.30
2018-04-18T04:22:50.444Z,5.40
2018-04-18T04:25:18.893Z,5.60
2018-04-18T04:27:46.577Z,5.60
2018-04-18T04:30:15.063Z,5.70
2018-04-18T04:32:43.532Z,5.60
2018-04-18T04:35:11.184Z,5.60
2018-04-18T04:37:38.865Z,5.60
2018-04-18T04:40:08.164Z,5.60
2018-04-18T04:42:36.020Z,5.60
2018-04-18T04:45:04.634Z,5.60
2018-04-18T04:47:33.077Z,5.70
2018-04-18T04:50:01.191Z,5.70
2018-04-18T04:52:28.830Z,5.70
2018-04-18T04:54:56.898Z,5.90
2018-04-18T04:57:24.620Z,5.90
2018-04-18T04:59:52.896Z,5.90
2018-04-18T05:02:20.594Z,5.90
2018-04-18T05:04:49.105Z,6.00
2018-04-18T05:07:16.860Z,6.00
2018-04-18T05:09:46.040Z,6.20
2018-04-18T05:12:13.701Z,6.20
2018-04-18T05:14:41.375Z,6.30
2018-04-18T05:17:09.811Z,6.50
2018-04-18T05:19:37.509Z,6.50
2018-04-18T05:22:05.270Z,6.60
2018-04-18T05:24:33.750Z,6.80
2018-04-18T05:27:01.388Z,6.80
2018-04-18T05:29:29.076Z,7.00
2018-04-18T05:31:56.736Z,7.20
2018-04-18T05:34:24.419Z,7.30
2018-04-18T05:36:52.033Z,7.40
2018-04-18T05:39:21.030Z,7.60
2018-04-18T05:41:49.456Z,7.70
2018-04-18T05:44:17.102Z,7.60
2018-04-18T05:46:44.781Z,7.80
2018-04-18T05:49:13.341Z,7.90
2018-04-18T05:51:41.742Z,8.30
2018-04-18T05:54:09.379Z,8.30
2018-04-18T05:56:39.155Z,8.70
2018-04-18T05:59:06.816Z,8.60
2018-04-18T06:01:34.516Z,8.90
2018-04-18T06:04:02.384Z,9.10
2018-04-18T06:06:30.093Z,9.30
2018-04-18T06:08:58.647Z,9.50
2018-04-18T06:11:27.085Z,10.00
2018-04-18T06:13:54.761Z,9.90
2018-04-18T06:16:22.392Z,10.10
2018-04-18T06:18:50.808Z,10.90
2018-04-18T06:21:18.446Z,10.90
2018-04-18T06:23:47.069Z,11.10
2018-04-18T06:26:14.745Z,11.10
2018-04-18T06:28:42.379Z,11.40
2018-04-18T06:31:10.044Z,11.60
2018-04-18T06:33:37.757Z,11.90
2018-04-18T06:36:05.366Z,12.10
2018-04-18T06:38:33.027Z,12.10
2018-04-18T06:41:00.682Z,12.50
2018-04-18T06:43:29.417Z,13.00
2018-04-18T06:45:57.083Z,13.00
2018-04-18T06:48:24.701Z,12.90
2018-04-18T06:50:53.080Z,13.60
2018-04-18T06:53:22.205Z,14.00
2018-04-18T06:55:49.922Z,14.00
2018-04-18T06:58:17.566Z,13.90
2018-04-18T07:00:45.246Z,14.20
2018-04-18T07:03:12.924Z,14.70
2018-04-18T07:05:40.581Z,14.80
2018-04-18T07:08:08.177Z,15.00
2018-04-18T07:10:35.825Z,15.40
2018-04-18T07:13:03.501Z,15.70
2018-04-18T07:15:31.117Z,15.80
2018-04-18T07:17:59.808Z,15.70
2018-04-18T07:20:27.477Z,15.70
2018-04-18T07:22:55.123Z,16.30
2018-04-18T07:25:22.806Z,16.40
2018-04-18T07:27:50.458Z,16.50
2018-04-18T07:30:19.171Z,16.70
2018-04-18T07:32:46.867Z,16.70
2018-04-18T07:35:14.656Z,17.30
2018-04-18T07:37:42.317Z,17.30
2018-04-18T07:40:10.600Z,17.70
2018-04-18T07:42:38.275Z,17.80
2018-04-18T07:45:05.926Z,17.80
2018-04-18T07:47:33.588Z,17.80
2018-04-18T07:50:02.147Z,18.20
2018-04-18T07:52:30.449Z,18.60
2018-04-18T07:54:58.105Z,18.80
2018-04-18T07:57:26.481Z,19.10
2018-04-18T07:59:54.090Z,19.30
2018-04-18T08:02:21.731Z,19.50
2018-04-18T08:04:49.472Z,19.50
2018-04-18T08:07:17.146Z,19.30
2018-04-18T08:09:44.805Z,19.40
2018-04-18T08:12:12.666Z,19.60
2018-04-18T08:14:40.321Z,19.90
2018-04-18T08:17:08.409Z,20.10
2018-04-18T08:19:36.981Z,20.20
2018-04-18T08:22:05.174Z,20.30
2018-04-18T08:24:32.840Z,20.60
2018-04-18T08:27:01.312Z,20.90
2018-04-18T08:29:29.775Z,21.10
2018-04-18T08:31:57.511Z,21.10
2018-04-18T08:34:26.037Z,21.50
2018-04-18T08:36:53.697Z,21.70
2018-04-18T08:39:22.172Z,22.10
2018-04-18T08:41:52.594Z,22.10
2018-04-18T08:44:20.982Z,22.30
2018-04-18T08:46:48.633Z,22.20
2018-04-18T08:49:16.830Z,22.60
2018-04-18T08:51:44.530Z,22.70
2018-04-18T08:54:13.783Z,23.00
2018-04-18T08:56:42.021Z,23.00
2018-04-18T08:59:12.214Z,23.20
2018-04-18T09:01:39.865Z,23.20
2018-04-18T09:04:07.587Z,23.60
2018-04-18T09:06:35.280Z,23.40
2018-04-18T09:09:03.506Z,23.00
2018-04-18T09:11:31.194Z,22.80
2018-04-18T09:13:59.650Z,23.80
2018-04-18T09:16:27.344Z,23.80
2018-04-18T09:18:55.796Z,23.70
2018-04-18T09:21:23.478Z,23.60
2018-04-18T09:23:51.356Z,23.10
2018-04-18T09:26:19.952Z,23.40
2018-04-18T09:28:48.188Z,23.80
2018-04-18T09:31:16.683Z,24.30
2018-04-18T09:33:44.373Z,24.40
2018-04-18T09:36:12.000Z,24.40
2018-04-18T09:38:39.668Z,24.70
2018-04-18T09:41:07.380Z,24.70
2018-04-18T09:43:35.319Z,25.00
2018-04-18T09:46:03.041Z,24.80
2018-04-18T09:48:30.720Z,25.30
2018-04-18T09:50:59.260Z,25.50
2018-04-18T09:53:26.957Z,25.50
2018-04-18T09:55:55.373Z,24.60
2018-04-18T09:58:23.109Z,24.60
2018-04-18T10:00:56.524Z,25.80
2018-04-18T10:03:24.245Z,25.80
2018-04-18T10:05:51.909Z,25.50
2018-04-18T10:08:19.546Z,25.70
2018-04-18T10:10:47.220Z,26.30
2018-04-18T10:13:14.863Z,26.30
2018-04-18T10:15:43.270Z,26.30
2018-04-18T10:18:10.929Z,26.30
2018-04-18T10:20:38.585Z,26.40
2018-04-18T10:23:06.280Z,26.30
2018-04-18T10:25:33.931Z,26.50
2018-04-18T10:28:01.590Z,26.50
2018-04-18T10:30:29.258Z,26.90
2018-04-18T10:32:56.931Z,26.40
2018-04-18T10:35:24.581Z,26.40
2018-04-18T10:37:53.403Z,27.00
2018-04-18T10:40:21.058Z,27.00
2018-04-18T10:42:49.538Z,26.90
2018-04-18T10:45:17.207Z,27.10
2018-04-18T10:47:44.913Z,27.10
2018-04-18T10:50:13.341Z,26.40
2018-04-18T10:52:41.024Z,26.90
2018-04-18T10:55:09.839Z,26.80
2018-04-18T10:57:37.511Z,26.40
2018-04-18T11:00:05.192Z,26.40
2018-04-18T11:02:33.035Z,26.60
2018-04-18T11:05:01.517Z,27.10
2018-04-18T11:07:29.177Z,26.60
2018-04-18T11:09:56.854Z,27.10
2018-04-18T11:12:24.603Z,27.50
2018-04-18T11:14:52.959Z,28.00
2018-04-18T11:17:21.382Z,28.10
2018-04-18T11:19:50.769Z,28.40
2018-04-18T11:22:18.415Z,28.40
2018-04-18T11:24:47.400Z,28.40
2018-04-18T11:27:15.060Z,28.30
2018-04-18T11:29:42.713Z,28.20
2018-04-18T11:32:10.355Z,28.10
2018-04-18T11:34:38.045Z,28.30
2018-04-18T11:37:05.754Z,28.30
2018-04-18T11:39:33.605Z,27.60
2018-04-18T11:42:02.363Z,28.00
2018-04-18T11:44:29.985Z,28.30
2018-04-18T11:46:58.423Z,27.90
2018-04-18T11:49:26.098Z,27.90
2018-04-18T11:51:53.790Z,28.10
2018-04-18T11:54:21.434Z,28.60
2018-04-18T11:56:49.831Z,28.90
2018-04-18T11:59:17.501Z,29.30
2018-04-18T12:01:45.181Z,29.30
2018-04-18T12:04:12.842Z,29.70
2018-04-18T12:06:40.503Z,29.30
2018-04-18T12:09:08.179Z,29.10
2018-04-18T12:11:39.634Z,29.40
2018-04-18T12:14:07.299Z,29.20
2018-04-18T12:16:35.233Z,28.90
2018-04-18T12:19:02.907Z,29.10
2018-04-18T12:21:30.584Z,29.90
2018-04-18T12:23:58.738Z,29.90
2018-04-18T12:26:26.513Z,30.40
2018-04-18T12:28:55.011Z,30.20
2018-04-18T12:31:22.651Z,30.20
2018-04-18T12:33:50.385Z,30.20
2018-04-18T12:36:18.118Z,29.50
2018-04-18T12:38:45.798Z,29.00
2018-04-18T12:41:14.352Z,29.30
2018-04-18T12:43:42.074Z,28.90
2018-04-18T12:46:09.633Z,29.10
2018-04-18T12:48:37.924Z,29.10
2018-04-18T12:51:05.511Z,28.70
2018-04-18T12:53:33.912Z,29.00
2018-04-18T12:56:01.575Z,29.00
2018-04-18T12:58:29.175Z,29.20
2018-04-18T13:00:56.805Z,28.90
2018-04-18T13:03:25.164Z,30.00
2018-04-18T13:05:52.747Z,30.00
2018-04-18T13:08:21.147Z,29.10
2018-04-18T13:10:48.815Z,29.00
2018-04-18T13:13:16.406Z,28.80
2018-04-18T13:15:44.048Z,28.50
2018-04-18T13:18:11.701Z,29.10
2018-04-18T13:20:40.073Z,28.70
2018-04-18T13:23:08.500Z,28.70
2018-04-18T13:25:36.120Z,28.70
2018-04-18T13:28:03.779Z,29.10
2018-04-18T13:30:32.252Z,28.30
2018-04-18T13:33:01.397Z,29.10
2018-04-18T13:35:29.052Z,29.10
2018-04-18T13:37:57.434Z,28.30
2018-04-18T13:40:26.152Z,28.30
2018-04-18T13:42:54.455Z,28.30
2018-04-18T13:45:22.072Z,28.00
2018-04-18T13:47:49.726Z,28.60
2018-04-18T13:50:17.381Z,28.90
2018-04-18T13:52:45.036Z,28.70
2018-04-18T13:55:12.703Z,28.60
2018-04-18T13:57:40.528Z,28.50
2018-04-18T14:00:08.144Z,28.90
2018-04-18T14:02:36.535Z,27.80
2018-04-18T14:05:05.226Z,27.90
2018-04-18T14:07:33.657Z,28.00
2018-04-18T14:10:01.296Z,28.00
2018-04-18T14:12:28.964Z,28.40
2018-04-18T14:14:56.670Z,28.50
2018-04-18T14:17:24.339Z,28.00
2018-04-18T14:19:52.241Z,28.20
2018-04-18T14:22:19.823Z,27.90
2018-04-18T14:24:48.230Z,27.30
2018-04-18T14:27:15.886Z,27.30
2018-04-18T14:29:43.513Z,27.50
2018-04-18T14:32:11.241Z,27.40
2018-04-18T14:34:38.871Z,27.00
2018-04-18T14:37:07.304Z,27.50
2018-04-18T14:39:34.958Z,27.40
2018-04-18T14:42:02.608Z,27.90
2018-04-18T14:44:30.245Z,27.50
2018-04-18T14:46:57.870Z,27.60
2018-04-18T14:49:25.504Z,27.40
2018-04-18T14:51:53.150Z,27.50
2018-04-18T14:54:21.550Z,27.10
2018-04-18T14:56:49.198Z,27.10
2018-04-18T14:59:17.597Z,26.60
2018-04-18T15:01:45.227Z,26.60
2018-04-18T15:04:12.882Z,26.30
2018-04-18T15:06:40.516Z,26.10
2018-04-18T15:09:08.172Z,26.00
2018-04-18T15:11:35.768Z,25.70
2018-04-18T15:14:03.383Z,25.70
2018-04-18T15:16:31.761Z,25.60
2018-04-18T15:18:59.423Z,25.60
2018-04-18T15:21:27.143Z,25.50
2018-04-18T15:23:54.740Z,25.50
2018-04-18T15:26:22.370Z,25.20
2018-04-18T15:28:50.008Z,25.10
2018-04-18T15:31:18.412Z,25.10
2018-04-18T15:33:46.036Z,25.00
2018-04-18T15:36:13.679Z,24.80
2018-04-18T15:38:41.304Z,24.60
2018-04-18T15:41:08.915Z,24.40
2018-04-18T15:43:36.558Z,24.50
2018-04-18T15:46:04.346Z,24.50
2018-04-18T15:48:31.953Z,24.40
2018-04-18T15:51:00.360Z,24.10
2018-04-18T15:53:27.975Z,24.00
2018-04-18T15:55:55.596Z,24.10
2018-04-18T15:58:23.223Z,24.00
2018-04-18T16:00:50.921Z,24.00
2018-04-18T16:03:18.553Z,23.80
2018-04-18T16:05:46.276Z,23.70
2018-04-18T16:08:14.123Z,23.60
2018-04-18T16:10:41.772Z,23.50
2018-04-18T16:13:10.137Z,23.30
2018-04-18T16:15:37.751Z,23.30
2018-04-18T16:18:05.707Z,23.30
2018-04-18T16:20:33.469Z,23.20
2018-04-18T16:23:02.843Z,23.20
2018-04-18T16:25:30.497Z,23.20
2018-04-18T16:27:58.117Z,23.10
2018-04-18T16:30:37.749Z,23.00
2018-04-18T16:33:06.131Z,22.90
2018-04-18T16:35:34.610Z,22.80
2018-04-18T16:38:03.296Z,22.70
2018-04-18T16:40:31.019Z,22.80
2018-04-18T16:42:59.259Z,22.70
2018-04-18T16:45:27.655Z,22.60
2018-04-18T16:47:55.294Z,22.60
2018-04-18T16:50:22.961Z,22.50
2018-04-18T16:52:51.781Z,22.30
2018-04-18T16:55:19.447Z,22.30
2018-04-18T16:57:47.120Z,22.30
2018-04-18T17:00:14.788Z,22.20
2018-04-18T17:02:44.127Z,22.10
2018-04-18T17:05:12.210Z,22.10
2018-04-18T17:07:40.375Z,22.00
2018-04-18T17:10:07.987Z,21.80
2018-04-18T17:12:36.497Z,21.60
2018-04-18T17:15:04.125Z,21.60
2018-04-18T17:17:32.959Z,21.60
2018-04-18T17:20:00.832Z,21.60
2018-04-18T17:22:29.050Z,21.40
2018-04-18T17:24:57.359Z,21.30
2018-04-18T17:27:25.078Z,21.10
2018-04-18T17:29:52.724Z,20.90
2018-04-18T17:32:20.344Z,20.90
2018-04-18T17:34:47.999Z,20.80
2018-04-18T17:37:15.804Z,20.70
2018-04-18T17:39:44.351Z,20.40
2018-04-18T17:42:12.074Z,20.40
2018-04-18T17:44:40.123Z,20.30
2018-04-18T17:47:07.768Z,20.10
2018-04-18T17:49:35.446Z,20.00
2018-04-18T17:52:04.088Z,19.80
2018-04-18T17:54:32.102Z,19.70
2018-04-18T17:57:02.893Z,19.60
2018-04-18T17:59:30.986Z,19.50
2018-04-18T18:01:58.691Z,19.40
2018-04-18T18:04:26.311Z,19.30
2018-04-18T18:06:53.929Z,19.10
2018-04-18T18:09:21.563Z,19.00
2018-04-18T18:11:49.192Z,18.80
2018-04-18T18:14:17.605Z,18.50
2018-04-18T18:16:45.701Z,18.50
2018-04-18T18:19:13.371Z,18.40
2018-04-18T18:21:41.025Z,18.40
2018-04-18T18:24:08.633Z,18.30
2018-04-18T18:26:37.068Z,18.10
2018-04-18T18:29:04.760Z,18.10
2018-04-18T18:31:32.368Z,18.00
2018-04-18T18:34:00.051Z,17.90
2018-04-18T18:36:27.687Z,17.70
2018-04-18T18:38:55.284Z,17.50
2018-04-18T18:41:22.947Z,17.40
2018-04-18T18:43:50.558Z,17.30
2018-04-18T18:46:18.182Z,17.20
2018-04-18T18:48:45.778Z,17.10
2018-04-18T18:51:13.388Z,17.00
2018-04-18T18:53:41.927Z,16.80
2018-04-18T18:56:09.564Z,16.80
2018-04-18T18:58:37.161Z,16.80
2018-04-18T19:01:04.819Z,16.60
2018-04-18T19:03:33.227Z,16.50
2018-04-18T19:06:01.110Z,16.50
2018-04-18T19:08:29.490Z,16.50
2018-04-18T19:10:57.141Z,16.50
2018-04-18T19:13:24.878Z,16.40
2018-04-18T19:15:53.297Z,16.10
2018-04-18T19:18:20.998Z,16.10
2018-04-18T19:20:49.414Z,16.00
2018-04-18T19:23:17.820Z,16.00
2018-04-18T19:25:45.455Z,16.00
2018-04-18T19:28:13.133Z,15.90
2018-04-18T19:30:41.834Z,15.70
2018-04-18T19:33:10.917Z,15.60
2018-04-18T19:35:38.615Z,15.60
2018-04-18T19:38:06.303Z,15.50
2018-04-18T19:40:34.174Z,15.40
2018-04-18T19:43:01.827Z,15.40
2018-04-18T19:45:29.463Z,15.30
2018-04-18T19:47:58.837Z,15.20
2018-04-18T19:50:27.544Z,15.20
2018-04-18T19:52:55.171Z,15.00
2018-04-18T19:55:22.931Z,14.90
2018-04-18T19:57:51.370Z,15.00
2018-04-18T20:00:19.026Z,14.90
2018-04-18T20:02:46.648Z,14.80
2018-04-18T20:05:14.370Z,14.80
2018-04-18T20:07:41.973Z,14.70
2018-04-18T20:10:09.646Z,14.70
2018-04-18T20:12:39.043Z,14.60
2018-04-18T20:15:09.245Z,14.60
2018-04-18T20:17:37.638Z,14.50
2018-04-18T20:20:07.153Z,14.50
2018-04-18T20:22:34.898Z,14.50
2018-04-18T20:25:02.547Z,14.50
2018-04-18T20:27:30.597Z,14.40
2018-04-18T20:29:59.103Z,14.30
2018-04-18T20:32:26.760Z,14.30
2018-04-18T20:34:55.408Z,14.30
2018-04-18T20:37:23.130Z,14.20
2018-04-18T20:39:50.780Z,14.10
2018-04-18T20:42:18.429Z,14.00
2018-04-18T20:44:46.069Z,13.90
2018-04-18T20:47:14.448Z,13.90
2018-04-18T20:49:43.680Z,13.80
2018-04-18T20:52:15.251Z,13.80
2018-04-18T20:54:43.557Z,13.80
2018-04-18T20:57:11.181Z,13.70
2018-04-18T20:59:38.867Z,13.60
2018-04-18T21:02:06.525Z,13.60
2018-04-18T21:04:34.175Z,13.60
2018-04-18T21:07:02.240Z,13.50
2018-04-18T21:09:31.000Z,13.30
2018-04-18T21:11:58.693Z,13.30
2018-04-18T21:14:27.735Z,13.40
2018-04-18T21:16:55.353Z,13.30
2018-04-18T21:19:23.719Z,13.10
2018-04-18T21:21:51.425Z,13.10
2018-04-18T21:24:19.104Z,13.00
2018-04-18T21:26:47.002Z,12.90
2018-04-18T21:29:14.679Z,12.90
2018-04-18T21:31:42.295Z,12.80
2018-04-18T21:34:09.970Z,12.80
2018-04-18T21:36:37.646Z,12.70
2018-04-18T21:39:06.043Z,12.80
2018-04-18T21:41:33.782Z,12.70
2018-04-18T21:44:01.436Z,12.70
2018-04-18T21:46:29.831Z,12.80
2018-04-18T21:48:58.269Z,12.80
2018-04-18T21:51:26.800Z,12.80
2018-04-18T21:53:55.191Z,12.60
2018-04-18T21:56:22.851Z,12.60
2018-04-18T21:58:50.512Z,12.50
2018-04-18T22:01:18.183Z,12.30
2018-04-18T22:03:45.834Z,12.20
2018-04-18T22:06:14.103Z,12.10
2018-04-18T22:08:42.325Z,12.10
2018-04-18T22:11:09.974Z,12.00
2018-04-18T22:13:38.409Z,12.20
2018-04-18T22:16:06.088Z,12.20
2018-04-18T22:18:34.280Z,12.20
2018-04-18T22:21:03.029Z,12.10
2018-04-18T22:23:30.708Z,12.00
2018-04-18T22:25:58.772Z,11.90
2018-04-18T22:28:26.941Z,11.80
2018-04-18T22:30:54.614Z,11.70
2018-04-18T22:33:22.282Z,11.80
2018-04-18T22:35:49.924Z,11.70
2018-04-18T22:38:19.135Z,11.60
2018-04-18T22:40:47.427Z,11.60
2018-04-18T22:43:15.080Z,11.50
2018-04-18T22:45:43.955Z,11.50
2018-04-18T22:48:12.595Z,11.40
2018-04-18T22:50:40.370Z,11.40
2018-04-18T22:53:08.041Z,11.60
2018-04-18T22:55:35.646Z,11.60
2018-04-18T22:58:03.963Z,11.60
2018-04-18T23:00:31.581Z,11.60
2018-04-18T23:03:00.006Z,11.50
2018-04-18T23:05:28.020Z,11.40
2018-04-18T23:07:55.693Z,11.30
2018-04-18T23:10:23.364Z,11.20
2018-04-18T23:12:51.708Z,11.10
2018-04-18T23:15:19.670Z,11.10
2018-04-18T23:17:47.466Z,11.00
2018-04-18T23:20:15.123Z,11.00
2018-04-18T23:22:42.779Z,11.00
2018-04-18T23:25:10.473Z,11.20
2018-04-18T23:27:38.817Z,11.30
2018-04-18T23:30:07.199Z,11.10
2018-04-18T23:32:35.803Z,10.90
2018-04-18T23:35:03.451Z,10.90
2018-04-18T23:37:31.183Z,10.90
2018-04-18T23:39:58.785Z,10.80
2018-04-18T23:42:26.430Z,10.80
2018-04-18T23:44:54.804Z,10.80
2018-04-18T23:47:23.391Z,10.80
2018-04-18T23:49:51.338Z,10.80
2018-04-18T23:52:18.995Z,10.60
2018-04-18T23:54:46.654Z,10.60
2018-04-18T23:57:14.333Z,10.70
2018-04-18T23:59:41.987Z,10.90
